Time;durP1;ratioP1;P1;durP2;ratioP2;P2;SDS_P1;SDS_P2;PMS_P1;PMS_P2;Temp;Humidity;BMP_temperature;BMP_pressure;BME280_temperature;BME280_humidity;BME280_pressure;Samples;Min_cycle;Max_cycle;Signal;HPM_P1;HPM_P2
2022/04/06 00:00:31;;;;;;;19.98;4.70;;;;;;;8.24;87.10;100485.63;5078240;28;20088;-75
2022/04/06 00:02:57;;;;;;;29.60;5.78;;;;;;;8.21;87.34;100483.25;5078497;28;20119;-75
2022/04/06 00:05:23;;;;;;;29.30;5.65;;;;;;;8.21;87.57;100478.81;5078340;28;20443;-74
2022/04/06 00:07:48;;;;;;;28.25;5.18;;;;;;;8.25;87.42;100482.00;5096212;28;20440;-75
2022/04/06 00:10:13;;;;;;;30.33;5.53;;;;;;;8.28;87.34;100476.44;5095884;28;20104;-75
2022/04/06 00:12:39;;;;;;;28.20;4.95;;;;;;;8.32;87.10;100477.88;5078407;28;20460;-74
2022/04/06 00:15:08;;;;;;;25.80;5.50;;;;;;;8.30;87.11;100467.41;5096659;28;20036;-74
2022/04/06 00:17:33;;;;;;;30.48;4.82;;;;;;;8.34;86.98;100461.81;5096055;28;20035;-75
2022/04/06 00:19:59;;;;;;;32.60;6.03;;;;;;;8.32;87.39;100469.91;5096073;28;20032;-74
2022/04/06 00:22:24;;;;;;;26.08;5.35;;;;;;;8.29;87.50;100465.72;5077793;28;20028;-74
2022/04/06 00:24:50;;;;;;;27.50;5.38;;;;;;;8.30;87.10;100464.75;5077775;28;20059;-75
2022/04/06 00:27:15;;;;;;;19.50;5.00;;;;;;;8.33;86.79;100454.84;5077700;28;20104;-75
2022/04/06 00:29:41;;;;;;;27.92;5.00;;;;;;;8.37;86.41;100459.72;5096320;28;20113;-73
2022/04/06 00:32:06;;;;;;;15.95;4.63;;;;;;;8.42;85.74;100457.53;5076483;28;20123;-74
2022/04/06 00:37:16;;;;;;;19.90;4.15;;;;;;;8.49;85.04;100460.50;5080523;28;20105;-75
2022/04/06 00:39:41;;;;;;;20.05;4.60;;;;;;;8.50;84.56;100459.53;5077540;28;20027;-75
2022/04/06 00:42:07;;;;;;;12.65;3.55;;;;;;;8.49;84.93;100449.06;5095808;28;20041;-75
2022/04/06 00:44:34;;;;;;;26.00;4.18;;;;;;;8.50;84.22;100450.75;5095858;28;20028;-75
2022/04/06 00:47:05;;;;;;;18.80;3.92;;;;;;;8.53;83.58;100438.06;5095847;28;20082;-74
2022/04/06 00:49:31;;;;;;;14.32;3.55;;;;;;;8.53;83.74;100439.88;5095540;28;20069;-75
2022/04/06 00:51:59;;;;;;;18.17;3.97;;;;;;;8.50;83.07;100434.84;5095294;28;20131;-75
2022/04/06 00:54:25;;;;;;;20.20;3.75;;;;;;;8.50;82.06;100440.97;5077352;28;20464;-75
2022/04/06 00:56:50;;;;;;;12.85;3.25;;;;;;;8.50;81.80;100440.16;5095272;28;20028;-74
2022/04/06 00:59:16;;;;;;;11.00;2.70;;;;;;;8.50;81.01;100435.69;5095350;28;20032;-74
2022/04/06 01:01:47;;;;;;;12.10;2.80;;;;;;;8.48;80.77;100432.34;5095012;28;20032;-74
2022/04/06 01:04:14;;;;;;;16.30;3.70;;;;;;;8.49;80.53;100427.84;5095467;28;20031;-74
2022/04/06 01:06:39;;;;;;;11.50;2.55;;;;;;;8.54;79.50;100425.63;5095275;28;20043;-75
2022/04/06 01:09:05;;;;;;;18.42;3.58;;;;;;;8.51;79.68;100428.53;5095097;28;20032;-75
2022/04/06 01:11:31;;;;;;;8.57;2.50;;;;;;;8.47;79.33;100417.38;5095271;28;20032;-75
2022/04/06 01:13:57;;;;;;;16.58;3.13;;;;;;;8.43;79.55;100419.44;5095001;28;20074;-75
2022/04/06 01:16:22;;;;;;;11.77;2.70;;;;;;;8.41;79.32;100413.44;5076669;28;20028;-74
2022/04/06 01:18:48;;;;;;;20.05;3.80;;;;;;;8.42;79.09;100420.41;5094486;28;20059;-75
2022/04/06 01:21:13;;;;;;;13.23;3.13;;;;;;;8.40;79.40;100417.03;5094888;28;20123;-74
2022/04/06 01:23:41;;;;;;;14.90;3.35;;;;;;;8.39;78.91;100418.03;5094790;28;20031;-75
2022/04/06 01:26:07;;;;;;;14.02;3.00;;;;;;;8.38;78.96;100423.47;5076537;28;20021;-74
2022/04/06 01:28:32;;;;;;;11.98;2.65;;;;;;;8.34;79.36;100422.06;5094603;28;20055;-74
2022/04/06 01:30:57;;;;;;;13.40;3.20;;;;;;;8.26;79.99;100418.25;5094673;28;20028;-75
2022/04/06 01:33:23;;;;;;;15.68;2.92;;;;;;;8.24;80.36;100419.34;5094516;28;20171;-74
2022/04/06 01:35:49;;;;;;;12.57;2.65;;;;;;;8.25;80.35;100413.94;5076838;28;20499;-74
2022/04/06 01:38:14;;;;;;;22.90;3.50;;;;;;;8.24;80.64;100414.06;5094980;28;20063;-75
2022/04/06 01:40:40;;;;;;;11.70;2.95;;;;;;;8.20;80.87;100417.97;5076457;28;20056;-74
2022/04/06 01:43:05;;;;;;;20.08;3.00;;;;;;;8.16;80.75;100409.44;5094254;28;20035;-75
2022/04/06 01:45:31;;;;;;;14.93;3.65;;;;;;;8.14;80.87;100418.50;5095107;28;20425;-75
2022/04/06 01:47:56;;;;;;;11.25;3.20;;;;;;;8.14;80.93;100418.50;5094294;28;20024;-76
2022/04/06 01:53:05;;;;;;;20.23;3.95;;;;;;;8.11;80.95;100420.44;5095000;28;20059;-75
2022/04/06 01:55:31;;;;;;;10.68;3.35;;;;;;;8.12;80.87;100408.03;5094613;28;20024;-75
2022/04/06 01:57:57;;;;;;;17.17;3.67;;;;;;;8.12;80.82;100405.38;5094570;28;20111;-76
2022/04/06 02:00:22;;;;;;;13.75;3.22;;;;;;;8.11;80.97;100412.50;5095404;28;20457;-74
2022/04/06 02:02:52;;;;;;;11.15;2.45;;;;;;;8.08;80.71;100404.81;5095044;28;20499;-76
2022/04/06 02:05:18;;;;;;;14.82;3.15;;;;;;;8.05;80.84;100402.44;5095430;28;20028;-74
2022/04/06 02:07:47;;;;;;;13.65;2.97;;;;;;;8.00;80.87;100395.84;5094211;28;20113;-74
2022/04/06 02:10:14;;;;;;;16.60;2.97;;;;;;;8.01;80.14;100402.84;5094815;28;20028;-77
2022/04/06 02:12:41;;;;;;;10.45;2.38;;;;;;;8.00;80.11;100402.00;5096455;28;20050;-75
2022/04/06 02:15:10;;;;;;;16.90;2.92;;;;;;;8.00;79.86;100402.00;5095424;28;20020;-75
2022/04/06 02:17:36;;;;;;;11.77;2.53;;;;;;;8.01;79.37;100393.06;5095287;28;20073;-75
2022/04/06 02:20:01;;;;;;;13.02;2.83;;;;;;;8.00;79.29;100390.53;5094051;28;20032;-74
2022/04/06 02:22:27;;;;;;;14.95;2.85;;;;;;;7.99;78.75;100394.19;5093833;28;20437;-74
2022/04/06 02:24:52;;;;;;;14.15;2.58;;;;;;;7.99;78.22;100380.94;5093339;28;20468;-73
2022/04/06 02:27:18;;;;;;;8.02;2.08;;;;;;;7.95;78.09;100383.00;5094036;28;20043;-75
2022/04/06 02:29:43;;;;;;;8.98;2.08;;;;;;;7.97;77.46;100382.88;5094219;28;20055;-75
2022/04/06 02:32:09;;;;;;;7.35;2.20;;;;;;;7.91;77.90;100374.50;5093450;28;20054;-75
2022/04/06 02:34:35;;;;;;;6.90;2.30;;;;;;;7.83;78.03;100373.47;5093373;28;20472;-74
2022/04/06 02:37:01;;;;;;;14.52;2.58;;;;;;;7.80;77.78;100369.28;5094072;28;20035;-74
2022/04/06 02:39:26;;;;;;;6.97;1.98;;;;;;;7.76;77.60;100368.72;5093352;28;20028;-75
2022/04/06 02:41:53;;;;;;;10.65;2.22;;;;;;;7.73;78.04;100366.34;5075350;28;20043;-76
2022/04/06 02:44:18;;;;;;;12.85;2.47;;;;;;;7.70;78.23;100371.03;5093507;28;20087;-74
2022/04/06 02:46:45;;;;;;;10.43;2.40;;;;;;;7.67;78.71;100366.84;5093576;28;20070;-75
2022/04/06 02:49:11;;;;;;;6.97;2.17;;;;;;;7.67;78.47;100361.53;5094052;28;20542;-75
2022/04/06 02:51:36;;;;;;;17.63;3.05;;;;;;;7.66;78.75;100353.72;5093019;28;20103;-74
2022/04/06 02:54:01;;;;;;;12.70;2.45;;;;;;;7.63;79.02;100341.63;5092447;28;20442;-75
2022/04/06 02:56:28;;;;;;;7.32;1.95;;;;;;;7.64;78.47;100347.72;5075152;28;20047;-75
2022/04/06 02:58:53;;;;;;;9.45;2.10;;;;;;;7.58;79.01;100344.66;5075279;28;20067;-75
2022/04/06 03:01:19;;;;;;;13.55;2.35;;;;;;;7.56;79.04;100345.75;5093355;28;20032;-74
2022/04/06 03:03:44;;;;;;;8.48;2.33;;;;;;;7.53;79.09;100341.53;5092982;28;20028;-74
2022/04/06 03:06:10;;;;;;;24.08;2.53;;;;;;;7.52;79.32;100331.09;5059017;28;20028;-74
2022/04/06 03:08:35;;;;;;;14.98;2.50;;;;;;;7.53;79.39;100327.47;5058839;28;20044;-74
2022/04/06 03:11:01;;;;;;;15.50;2.42;;;;;;;7.53;79.23;100332.78;5093707;28;20038;-74
2022/04/06 03:13:26;;;;;;;13.38;2.17;;;;;;;7.54;79.55;100326.53;5075829;28;20028;-75
2022/04/06 03:15:51;;;;;;;14.68;2.55;;;;;;;7.57;79.28;100337.69;5093167;28;20035;-74
2022/04/06 03:18:17;;;;;;;11.43;2.50;;;;;;;7.57;79.37;100321.78;5093263;28;20456;-75
2022/04/06 03:20:42;;;;;;;9.82;1.88;;;;;;;7.56;79.22;100330.69;5092788;28;20085;-74
2022/04/06 03:23:08;;;;;;;12.43;2.60;;;;;;;7.52;79.34;100326.63;5093252;28;20519;-75
2022/04/06 03:25:34;;;;;;;9.40;2.55;;;;;;;7.48;79.61;100319.94;5092768;28;20028;-74
2022/04/06 03:27:59;;;;;;;14.18;3.80;;;;;;;7.45;79.96;100328.16;5074879;28;20090;-74
2022/04/06 03:30:24;;;;;;;9.38;1.92;;;;;;;7.39;80.32;100321.56;5092822;28;20032;-73
2022/04/06 03:32:50;;;;;;;10.77;2.15;;;;;;;7.41;80.06;100313.50;5092993;28;20372;-74
2022/04/06 03:35:15;;;;;;;11.98;2.30;;;;;;;7.40;79.92;100304.72;5092906;28;20044;-75
2022/04/06 03:37:41;;;;;;;9.98;2.13;;;;;;;7.38;79.88;100313.75;5074762;28;20050;-74
2022/04/06 03:40:07;;;;;;;11.82;1.90;;;;;;;7.33;80.00;100300.06;5092741;28;20032;-74
2022/04/06 03:42:34;;;;;;;11.52;2.22;;;;;;;7.29;80.12;100301.31;5092380;28;20434;-75
2022/04/06 03:44:59;;;;;;;11.95;2.65;;;;;;;7.28;79.96;100296.97;5074612;28;20036;-74
2022/04/06 03:47:30;;;;;;;8.32;2.00;;;;;;;7.25;80.26;100295.44;5092414;28;20510;-74
2022/04/06 03:49:55;;;;;;;13.13;2.40;;;;;;;7.21;80.42;100289.56;5093500;28;20108;-75
2022/04/06 03:52:21;;;;;;;16.40;2.80;;;;;;;7.17;81.42;100290.78;5092846;28;20456;-74
2022/04/06 03:54:46;;;;;;;14.50;2.60;;;;;;;7.20;82.00;100290.53;5092990;28;20369;-75
2022/04/06 03:57:12;;;;;;;15.07;2.70;;;;;;;7.22;82.34;100293.88;5092616;28;20036;-76
2022/04/06 03:59:37;;;;;;;17.23;3.10;;;;;;;7.21;82.58;100286.06;5092726;28;20039;-75
2022/04/06 04:02:03;;;;;;;19.92;3.47;;;;;;;7.20;83.05;100290.53;5092587;28;20468;-75
2022/04/06 04:04:29;;;;;;;17.25;3.10;;;;;;;7.23;84.06;100273.56;5092696;28;20130;-74
2022/04/06 04:06:54;;;;;;;21.35;3.67;;;;;;;7.29;84.68;100280.97;5094720;28;20442;-74
2022/04/06 04:09:19;;;;;;;23.50;4.43;;;;;;;7.35;85.31;100276.97;5096066;28;20051;-74
2022/04/06 04:11:45;;;;;;;25.65;4.10;;;;;;;7.39;85.30;100273.09;5078007;28;20032;-74
2022/04/06 04:14:10;;;;;;;22.17;3.50;;;;;;;7.39;85.50;100276.56;5077816;28;20530;-73
2022/04/06 04:16:36;;;;;;;27.77;4.18;;;;;;;7.40;85.66;100277.41;5096246;28;20063;-73
2022/04/06 04:19:02;;;;;;;25.13;4.13;;;;;;;7.45;85.79;100271.69;5095956;28;20039;-74
2022/04/06 04:21:32;;;;;;;24.10;4.22;;;;;;;7.47;85.55;100269.78;5095787;28;20035;-74
2022/04/06 04:23:57;;;;;;;23.73;3.83;;;;;;;7.49;85.24;100271.28;5095894;28;20036;-75
2022/04/06 04:26:23;;;;;;;22.50;3.67;;;;;;;7.51;85.08;100272.03;5095917;28;20028;-75
2022/04/06 04:28:48;;;;;;;17.15;3.10;;;;;;;7.51;84.96;100258.78;5096105;28;20380;-74
2022/04/06 04:31:13;;;;;;;23.42;3.80;;;;;;;7.50;84.92;100254.44;5077623;28;20024;-73
2022/04/06 04:33:39;;;;;;;20.08;3.17;;;;;;;7.53;84.03;100251.53;5095745;28;20480;-73
2022/04/06 04:36:04;;;;;;;12.32;2.67;;;;;;;7.54;83.50;100247.94;5077225;28;20158;-74
2022/04/06 04:38:30;;;;;;;14.52;3.67;;;;;;;7.55;83.40;100240.81;5077658;28;20032;-74
2022/04/06 04:40:55;;;;;;;17.75;3.28;;;;;;;7.59;83.17;100245.69;5096485;28;20040;-73
2022/04/06 04:43:22;;;;;;;17.95;2.67;;;;;;;7.59;83.43;100244.88;5095358;28;20039;-73
2022/04/06 04:45:48;;;;;;;16.65;3.25;;;;;;;7.60;83.71;100249.22;5095757;28;20552;-74
2022/04/06 04:48:13;;;;;;;18.83;3.47;;;;;;;7.63;83.57;100253.38;5078039;28;20028;-74
2022/04/06 04:50:38;;;;;;;16.25;3.38;;;;;;;7.65;83.62;100244.34;5095134;28;20430;-74
2022/04/06 04:53:05;;;;;;;19.90;3.35;;;;;;;7.63;83.75;100248.94;5095689;28;20030;-74
2022/04/06 04:55:31;;;;;;;22.48;3.42;;;;;;;7.61;84.23;100255.31;5095463;28;20032;-73
2022/04/06 04:57:57;;;;;;;32.13;4.90;;;;;;;7.65;83.87;100248.81;5077240;28;20073;-73
2022/04/06 05:00:22;;;;;;;15.50;2.67;;;;;;;7.67;83.95;100238.91;5095337;28;20424;-74
2022/04/06 05:02:47;;;;;;;23.23;3.60;;;;;;;7.69;84.35;100236.97;5095588;28;20028;-74
2022/04/06 05:05:13;;;;;;;18.77;3.00;;;;;;;7.69;84.22;100234.31;5076987;28;20060;-74
2022/04/06 05:07:38;;;;;;;19.30;2.65;;;;;;;7.70;84.35;100242.13;5060620;28;20032;-77
2022/04/06 05:10:06;;;;;;;20.30;3.50;;;;;;;7.74;84.03;100226.81;5076816;28;20123;-75
2022/04/06 05:12:31;;;;;;;19.40;3.63;;;;;;;7.75;84.25;100223.19;5095104;28;20032;-76
2022/04/06 05:14:59;;;;;;;20.90;3.65;;;;;;;7.77;84.22;100229.19;5076862;28;20089;-73
2022/04/06 05:17:24;;;;;;;23.02;4.32;;;;;;;7.77;84.23;100226.53;5094410;28;20066;-75
2022/04/06 05:19:50;;;;;;;27.27;4.47;;;;;;;7.77;84.73;100237.94;5095049;28;20440;-74
2022/04/06 05:22:15;;;;;;;21.27;3.83;;;;;;;7.79;84.30;100223.75;5095053;28;20127;-76
2022/04/06 05:24:40;;;;;;;18.88;3.58;;;;;;;7.77;84.32;100224.72;5094846;28;20036;-78
2022/04/06 05:27:06;;;;;;;18.33;3.03;;;;;;;7.77;84.30;100242.41;5077159;28;20062;-78
2022/04/06 05:29:31;;;;;;;18.13;3.33;;;;;;;7.74;84.34;100232.09;5095201;28;20472;-78
2022/04/06 05:31:57;;;;;;;19.63;4.20;;;;;;;7.76;84.07;100236.28;5094883;28;20032;-77
2022/04/06 05:34:22;;;;;;;16.70;2.92;;;;;;;7.79;83.89;100237.81;5076454;28;20357;-76
2022/04/06 05:36:47;;;;;;;22.15;3.33;;;;;;;7.83;83.30;100225.16;5094749;28;20040;-76
2022/04/06 05:39:13;;;;;;;23.83;4.07;;;;;;;7.84;83.23;100217.06;5094671;28;20036;-76
2022/04/06 05:41:38;;;;;;;29.10;3.72;;;;;;;7.83;83.13;100219.84;5094694;28;20038;-76
2022/04/06 05:44:04;;;;;;;22.15;3.78;;;;;;;7.82;83.27;100223.47;5076366;28;20381;-77
2022/04/06 05:46:30;;;;;;;14.38;3.03;;;;;;;7.84;82.96;100230.31;5094737;28;20039;-78
2022/04/06 05:48:55;;;;;;;16.80;3.38;;;;;;;7.84;82.83;100234.78;5076444;28;20031;-77
2022/04/06 05:51:22;;;;;;;20.75;3.42;;;;;;;7.88;82.42;100218.47;5076141;28;20096;-78
2022/04/06 05:53:47;;;;;;;22.65;3.42;;;;;;;7.88;82.13;100212.31;5094016;28;20063;-78
2022/04/06 05:56:12;;;;;;;19.20;3.47;;;;;;;7.89;81.67;100212.19;5094268;28;20206;-78
2022/04/06 05:58:38;;;;;;;23.67;3.78;;;;;;;7.92;80.92;100216.38;5094226;28;20032;-76
2022/04/06 06:01:03;;;;;;;12.95;2.90;;;;;;;7.94;80.62;100217.06;5094562;28;20032;-79
2022/04/06 06:03:29;;;;;;;18.58;3.08;;;;;;;7.95;80.38;100214.28;5094665;28;20089;-78
2022/04/06 06:05:55;;;;;;;11.18;2.58;;;;;;;7.94;80.24;100209.13;5094286;28;20114;-78
2022/04/06 06:08:20;;;;;;;15.27;2.88;;;;;;;7.94;79.70;100215.28;5094453;28;20089;-78
2022/04/06 06:10:46;;;;;;;13.27;2.83;;;;;;;7.95;79.23;100205.50;5094120;28;20094;-78
2022/04/06 06:13:12;;;;;;;18.17;3.63;;;;;;;8.00;78.65;100208.59;5076828;28;20043;-77
2022/04/06 06:15:37;;;;;;;14.32;2.95;;;;;;;8.02;78.22;100206.63;5094535;28;20024;-80
2022/04/06 06:18:03;;;;;;;25.02;3.60;;;;;;;8.05;77.87;100216.13;5094325;28;20032;-75
2022/04/06 06:20:28;;;;;;;12.68;3.28;;;;;;;8.08;78.19;100200.78;5076445;28;20468;-76
2022/04/06 06:22:54;;;;;;;10.68;2.50;;;;;;;8.12;77.78;100204.84;5095101;28;20060;-78
2022/04/06 06:25:19;;;;;;;16.88;2.97;;;;;;;8.16;78.02;100207.19;5094491;28;20115;-76
2022/04/06 06:27:46;;;;;;;14.90;3.03;;;;;;;8.16;78.80;100210.69;5094649;28;20086;-80
2022/04/06 06:30:13;;;;;;;14.23;2.60;;;;;;;8.13;78.64;100210.97;5076644;28;20468;-80
2022/04/06 06:32:39;;;;;;;12.48;2.45;;;;;;;8.08;79.25;100214.03;5094632;28;20036;-80
2022/04/06 06:35:07;;;;;;;21.50;2.85;;;;;;;8.03;79.85;100210.97;5076408;28;20055;-80
2022/04/06 06:37:34;;;;;;;14.85;2.85;;;;;;;8.01;80.96;100197.00;5075954;28;20470;-77
2022/04/06 06:39:59;;;;;;;16.05;2.72;;;;;;;7.88;83.72;100191.13;5094331;28;20032;-77
2022/04/06 06:42:25;;;;;;;19.33;3.08;;;;;;;7.77;85.19;100186.81;5093432;28;20473;-77
2022/04/06 06:44:51;;;;;;;13.20;2.88;;;;;;;7.68;86.68;100172.56;5075584;28;20350;-76
2022/04/06 06:47:16;;;;;;;19.02;2.92;;;;;;;7.59;88.17;100187.44;5093533;28;20043;-78
2022/04/06 06:49:46;;;;;;;20.67;3.20;;;;;;;7.54;89.43;100194.16;5093226;28;20036;-74
2022/04/06 06:52:15;;;;;;;18.50;2.80;;;;;;;7.46;90.51;100194.81;5093580;28;20070;-75
2022/04/06 06:54:40;;;;;;;12.43;2.55;;;;;;;7.36;91.83;100201.88;5074982;28;20485;-78
2022/04/06 06:57:06;;;;;;;19.67;3.65;;;;;;;7.30;93.04;100194.47;5093084;28;20040;-78
2022/04/06 06:59:31;;;;;;;22.60;3.38;;;;;;;7.31;93.38;100190.84;5093070;28;20040;-78
2022/04/06 07:01:56;;;;;;;17.25;3.17;;;;;;;7.33;93.17;100187.13;5093223;28;20353;-76
2022/04/06 07:04:22;;;;;;;27.63;3.70;;;;;;;7.38;93.13;100184.88;5093297;28;20032;-78
2022/04/06 07:06:49;;;;;;;25.10;3.45;;;;;;;7.44;93.05;100191.47;5093569;28;20428;-78
2022/04/06 07:09:15;;;;;;;15.63;3.63;;;;;;;7.51;92.58;100178.50;5093027;28;20024;-76
2022/04/06 07:11:41;;;;;;;20.58;4.15;;;;;;;7.57;92.63;100175.34;5093042;28;20467;-76
2022/04/06 07:14:07;;;;;;;28.45;3.85;;;;;;;7.63;92.62;100189.81;5093090;28;20480;-77
2022/04/06 07:16:32;;;;;;;18.92;3.40;;;;;;;7.68;92.24;100185.81;5093184;28;20457;-77
2022/04/06 07:18:58;;;;;;;22.02;3.33;;;;;;;7.67;92.86;100202.66;5093892;28;20039;-76
2022/04/06 07:21:24;;;;;;;17.95;4.13;;;;;;;7.65;93.84;100174.66;5092973;28;20528;-76
2022/04/06 07:23:49;;;;;;;22.42;3.67;;;;;;;7.56;95.29;100189.53;5093107;28;20047;-76
2022/04/06 07:26:17;;;;;;;19.98;3.20;;;;;;;7.50;95.65;100167.09;5093350;28;20043;-78
2022/04/06 07:28:44;;;;;;;17.48;3.10;;;;;;;7.51;95.87;100173.22;5094016;28;20086;-76
2022/04/06 07:31:11;;;;;;;20.20;4.70;;;;;;;7.54;96.17;100170.31;5075538;28;20039;-77
2022/04/06 07:33:36;;;;;;;23.98;3.35;;;;;;;7.58;96.61;100166.41;5093598;28;20035;-75
2022/04/06 07:36:06;;;;;;;26.48;3.72;;;;;;;7.70;96.02;100160.03;5093162;28;20048;-76
2022/04/06 07:38:32;;;;;;;20.25;3.60;;;;;;;7.82;95.64;100163.38;5076639;28;20066;-76
2022/04/06 07:40:57;;;;;;;26.55;3.90;;;;;;;7.94;94.74;100159.66;5099257;28;20032;-75
2022/04/06 07:43:23;;;;;;;25.20;4.07;;;;;;;8.00;94.59;100160.91;5106544;28;20039;-76
2022/04/06 07:45:49;;;;;;;31.40;4.72;;;;;;;8.02;94.15;100153.66;5093698;28;20408;-76
2022/04/06 07:48:14;;;;;;;22.70;3.28;;;;;;;8.08;93.14;100150.44;5112952;28;20032;-77
2022/04/06 07:50:39;;;;;;;25.80;4.05;;;;;;;8.11;93.56;100146.69;5090117;28;20044;-76
2022/04/06 07:53:05;;;;;;;28.02;4.10;;;;;;;8.16;93.62;100148.91;5100420;28;20040;-76
2022/04/06 07:55:30;;;;;;;30.15;4.28;;;;;;;8.20;93.35;100148.47;5097306;28;20032;-78
2022/04/06 07:57:56;;;;;;;28.52;5.07;;;;;;;8.25;92.74;100146.22;5079062;28;20036;-81
2022/04/06 08:00:21;;;;;;;19.17;3.83;;;;;;;8.30;92.14;100153.78;5096538;28;20547;-78
2022/04/06 08:02:49;;;;;;;24.80;3.35;;;;;;;8.28;92.34;100145.13;5097066;28;20508;-78
2022/04/06 08:05:15;;;;;;;23.65;4.20;;;;;;;8.24;92.68;100149.03;5097105;28;20475;-79
2022/04/06 08:07:43;;;;;;;37.35;4.82;;;;;;;8.20;92.86;100159.09;5096253;28;20028;-75
2022/04/06 08:10:11;;;;;;;20.38;3.78;;;;;;;8.22;93.06;100153.63;5096687;28;20081;-78
2022/04/06 08:12:37;;;;;;;33.95;4.68;;;;;;;8.18;93.54;100146.94;5096244;28;20042;-77
2022/04/06 08:15:04;;;;;;;28.42;4.53;;;;;;;8.08;94.75;100121.28;5077976;28;20110;-78
2022/04/06 08:17:37;;;;;;;24.20;4.75;;;;;;;7.97;96.16;100126.72;5096009;28;20131;-79
2022/04/06 08:20:05;;;;;;;18.92;4.10;;;;;;;7.90;97.70;100131.75;5096084;28;20031;-79
2022/04/06 08:22:31;;;;;;;35.65;5.10;;;;;;;7.84;98.67;100128.84;5096553;28;20058;-75
2022/04/06 08:24:57;;;;;;;30.13;4.63;;;;;;;7.79;99.61;100131.88;5095975;28;20476;-77
2022/04/06 08:27:22;;;;;;;29.10;4.70;;;;;;;7.79;99.68;100115.97;5095945;28;20036;-79
2022/04/06 08:29:48;;;;;;;33.42;5.57;;;;;;;7.81;99.89;100124.66;5077359;28;20043;-78
2022/04/06 08:32:14;;;;;;;38.33;4.70;;;;;;;7.86;100.00;100126.88;5096074;28;20095;-81
2022/04/06 08:34:40;;;;;;;30.48;5.68;;;;;;;7.88;100.00;100116.97;5095596;28;20052;-77
2022/04/06 08:37:05;;;;;;;26.35;4.50;;;;;;;7.89;100.00;100110.72;5096332;28;20431;-78
2022/04/06 08:39:31;;;;;;;37.40;5.28;;;;;;;7.92;100.00;100110.41;5095741;28;20402;-81
2022/04/06 08:41:57;;;;;;;31.48;4.70;;;;;;;8.01;100.00;100111.41;5095866;28;20453;-79
2022/04/06 08:44:23;;;;;;;27.52;4.38;;;;;;;8.06;100.00;100109.16;5095827;28;20024;-78
2022/04/06 08:46:50;;;;;;;34.30;5.45;;;;;;;8.09;99.54;100117.69;5095944;28;20038;-79
2022/04/06 08:49:16;;;;;;;35.47;5.95;;;;;;;8.13;99.35;100118.22;5078240;28;20377;-80
2022/04/06 08:51:45;;;;;;;30.10;4.85;;;;;;;8.22;99.19;100121.84;5094536;28;20518;-79
2022/04/06 08:54:10;;;;;;;30.40;4.68;;;;;;;8.38;98.76;100119.44;5077715;28;20024;-79
2022/04/06 08:56:36;;;;;;;36.53;5.30;;;;;;;8.53;97.39;100108.44;5095438;28;20044;-79
2022/04/06 08:59:02;;;;;;;28.17;5.35;;;;;;;8.67;96.37;100105.31;5095088;28;20024;-79
2022/04/06 09:01:31;;;;;;;32.83;5.85;;;;;;;8.83;96.16;100108.16;5077132;28;20032;-77
2022/04/06 09:03:58;;;;;;;23.52;5.25;;;;;;;8.84;95.49;100109.03;5095159;28;20093;-79
2022/04/06 09:06:26;;;;;;;32.50;5.80;;;;;;;8.86;95.58;100109.72;5077545;28;20063;-79
2022/04/06 09:08:51;;;;;;;35.40;4.93;;;;;;;9.00;94.97;100105.72;5094883;28;20032;-83
2022/04/06 09:11:19;;;;;;;36.92;6.10;;;;;;;9.11;94.05;100121.47;5095180;28;20036;-79
2022/04/06 09:13:46;;;;;;;33.35;5.22;;;;;;;9.16;93.10;100110.41;5095099;28;20027;-79
2022/04/06 09:16:14;;;;;;;30.08;4.75;;;;;;;9.23;92.58;100108.00;5077015;28;20036;-78
2022/04/06 09:18:44;;;;;;;24.70;5.05;;;;;;;9.30;92.51;100115.22;5095092;28;20024;-78
2022/04/06 09:21:14;;;;;;;32.97;5.67;;;;;;;9.35;91.85;100115.59;5095096;28;20039;-79
2022/04/06 09:23:40;;;;;;;22.67;5.18;;;;;;;9.42;90.88;100121.19;5076840;28;20032;-76
2022/04/06 09:26:11;;;;;;;34.33;5.95;;;;;;;9.41;90.75;100108.88;5095209;28;20097;-75
2022/04/06 09:28:41;;;;;;;34.03;5.07;;;;;;;9.35;90.89;100107.66;5094862;28;20427;-80
2022/04/06 09:31:08;;;;;;;36.80;4.77;;;;;;;9.37;91.20;100114.63;5094667;28;20103;-81
2022/04/06 09:33:39;;;;;;;37.03;5.78;;;;;;;9.52;90.79;100111.34;5076674;28;20028;-80
2022/04/06 09:36:17;;;;;;;31.40;5.60;;;;;;;9.81;89.90;100106.78;5077137;28;20150;-80
2022/04/06 09:38:47;;;;;;;27.65;4.35;;;;;;;9.96;88.15;100115.06;5094714;28;20024;-78
2022/04/06 09:41:15;;;;;;;29.35;5.38;;;;;;;10.16;87.63;100113.06;5076804;28;20051;-81
2022/04/06 09:43:41;;;;;;;32.25;5.47;;;;;;;10.28;86.42;100103.00;5076529;28;20028;-79
2022/04/06 09:49:12;;;;;;;29.40;4.70;;;;;;;10.74;83.90;100096.50;5097222;28;20046;-78
2022/04/06 09:51:39;;;;;;;24.60;4.78;;;;;;;11.22;82.74;100102.22;5077454;28;20032;-79
2022/04/06 09:54:08;;;;;;;24.30;4.22;;;;;;;11.99;78.98;100087.91;5094460;28;20020;-79
2022/04/06 09:56:34;;;;;;;30.52;5.80;;;;;;;11.97;77.71;100095.22;5094408;28;20056;-78
2022/04/06 09:59:02;;;;;;;25.58;5.05;;;;;;;11.89;77.12;100087.19;5094406;28;20039;-78
2022/04/06 10:01:38;;;;;;;24.90;3.90;;;;;;;11.46;78.79;100092.63;5093966;28;20490;-79
2022/04/06 10:04:05;;;;;;;23.50;4.80;;;;;;;10.96;80.75;100101.44;5094070;28;20472;-78
2022/04/06 10:06:35;;;;;;;19.42;4.30;;;;;;;10.71;81.36;100109.31;5094311;28;20040;-79
2022/04/06 10:09:03;;;;;;;21.73;4.55;;;;;;;10.53;82.45;100093.41;5094102;28;20032;-78
2022/04/06 10:11:29;;;;;;;22.13;4.25;;;;;;;10.37;82.94;100091.47;5093925;28;20028;-77
2022/04/06 10:13:56;;;;;;;21.55;3.88;;;;;;;10.11;84.03;100076.31;5076469;28;20035;-78
2022/04/06 10:16:24;;;;;;;24.13;4.20;;;;;;;9.96;84.62;100084.00;5093939;28;20031;-78
2022/04/06 10:18:51;;;;;;;24.73;4.53;;;;;;;9.84;84.18;100088.72;5093956;28;20059;-79
2022/04/06 10:21:30;;;;;;;24.15;3.92;;;;;;;9.81;85.36;100072.25;5093833;28;20040;-77
2022/04/06 10:24:32;;;;;;;19.63;3.33;;;;;;;9.77;85.78;100078.84;5093674;28;20055;-77
2022/04/06 10:27:15;;;;;;;23.75;4.07;;;;;;;9.85;85.38;100071.78;5093761;28;20032;-79
2022/04/06 10:30:09;;;;;;;24.10;3.95;;;;;;;9.86;84.98;100062.00;5093532;28;20122;-79
2022/04/06 10:32:38;;;;;;;20.38;3.40;;;;;;;10.01;84.49;100063.09;5093895;28;20040;-76
2022/04/06 10:35:33;;;;;;;18.65;3.40;;;;;;;10.26;83.29;100041.19;5093433;28;20095;-78
2022/04/06 10:37:59;;;;;;;18.55;3.35;;;;;;;10.32;83.22;100057.34;5093895;28;20117;-77
2022/04/06 10:40:48;;;;;;;17.88;3.35;;;;;;;10.59;82.93;100037.75;5095090;28;20436;-77
2022/04/06 10:43:48;;;;;;;19.73;3.58;;;;;;;10.65;81.77;100048.75;5094471;28;20024;-78
2022/04/06 10:46:31;;;;;;;12.98;2.90;;;;;;;10.62;81.57;100051.75;5094619;28;20054;-79
2022/04/06 10:49:16;;;;;;;16.15;3.10;;;;;;;10.59;80.56;100043.06;5094554;28;20036;-77
2022/04/06 10:51:48;;;;;;;13.98;3.63;;;;;;;10.44;80.54;100051.81;5092856;28;20093;-77
2022/04/06 10:54:14;;;;;;;16.80;2.60;;;;;;;10.36;81.95;100031.28;5093339;28;20111;-81
2022/04/06 10:56:50;;;;;;;21.55;3.15;;;;;;;10.39;82.57;100053.09;5093419;28;20063;-78
2022/04/06 10:59:28;;;;;;;17.17;2.90;;;;;;;10.38;82.48;100051.44;5093429;28;20036;-79
2022/04/06 11:02:19;;;;;;;13.82;2.88;;;;;;;10.33;82.35;100058.16;5075499;28;20042;-78
2022/04/06 11:04:46;;;;;;;15.43;2.70;;;;;;;10.20;82.43;100048.78;5093907;28;20028;-80
2022/04/06 11:07:13;;;;;;;16.08;3.13;;;;;;;10.27;81.86;100040.19;5093978;28;20024;-80
2022/04/06 11:12:33;;;;;;;14.55;3.22;;;;;;;10.17;82.36;100032.31;5094107;28;20423;-81
2022/04/06 11:14:58;;;;;;;10.88;2.42;;;;;;;10.12;82.97;100045.25;5095044;28;20099;-79
2022/04/06 11:17:34;;;;;;;13.68;2.92;;;;;;;9.95;84.56;100031.81;5097947;28;20067;-77
2022/04/06 11:20:08;;;;;;;13.57;2.88;;;;;;;9.92;84.49;100034.81;5098687;28;20028;-79
2022/04/06 11:22:39;;;;;;;15.63;2.75;;;;;;;9.94;84.51;100021.34;5097533;28;20356;-80
2022/04/06 11:25:16;;;;;;;10.63;2.40;;;;;;;10.02;84.00;100029.41;5062894;28;20325;-78
2022/04/06 11:27:44;;;;;;;10.50;2.72;;;;;;;9.98;83.87;100023.53;5098569;28;20268;-82
2022/04/06 11:30:12;;;;;;;14.93;3.35;;;;;;;9.96;83.80;100030.03;5097190;28;20032;-79
2022/04/06 11:32:39;;;;;;;10.50;2.92;;;;;;;10.10;82.76;100016.16;5097318;28;20546;-80
2022/04/06 11:35:07;;;;;;;12.90;2.78;;;;;;;10.15;82.76;100024.50;5096623;28;20044;-78